createdAt,value
2019-03-21T00:01:16.462Z,79.19
2019-03-21T00:03:49.601Z,79.45
2019-03-21T00:06:20.984Z,79.44
2019-03-21T00:08:52.359Z,78.86
2019-03-21T00:12:01.879Z,79.31
2019-03-21T00:14:45.291Z,78.50
2019-03-21T00:17:28.705Z,79.18
2019-03-21T00:19:59.987Z,79.27
2019-03-21T00:22:31.309Z,79.61
2019-03-21T00:25:02.759Z,79.11
2019-03-21T00:27:34.015Z,78.59
2019-03-21T00:30:08.536Z,79.07
2019-03-21T00:32:39.959Z,79.65
2019-03-21T00:35:12.053Z,79.63
2019-03-21T00:37:42.631Z,79.16
2019-03-21T00:40:17.175Z,79.65
2019-03-21T00:42:48.915Z,80.02
2019-03-21T00:45:20.325Z,79.69
2019-03-21T00:47:51.792Z,79.82
2019-03-21T00:50:26.206Z,80.19
2019-03-21T00:52:57.666Z,79.82
2019-03-21T00:55:32.228Z,80.20
2019-03-21T00:58:03.583Z,79.77
2019-03-21T01:00:44.318Z,79.88
2019-03-21T01:03:15.648Z,79.66
2019-03-21T01:05:46.976Z,80.19
2019-03-21T01:08:18.312Z,80.32
2019-03-21T01:10:50.718Z,79.80
2019-03-21T01:13:22.759Z,79.71
2019-03-21T01:15:54.280Z,80.17
2019-03-21T01:18:25.744Z,80.85
2019-03-21T01:20:56.922Z,79.82
2019-03-21T01:23:28.303Z,80.22
2019-03-21T01:26:02.994Z,80.00
2019-03-21T01:28:34.212Z,80.39
2019-03-21T01:31:05.605Z,79.74
2019-03-21T01:33:36.958Z,79.72
2019-03-21T01:36:09.423Z,80.48
2019-03-21T01:38:40.834Z,79.86
2019-03-21T01:41:18.248Z,80.83
2019-03-21T01:43:49.632Z,81.05
2019-03-21T01:46:23.326Z,80.91
2019-03-21T01:48:54.648Z,80.68
2019-03-21T01:51:25.990Z,80.84
2019-03-21T01:53:57.322Z,80.02
2019-03-21T01:56:30.053Z,80.66
2019-03-21T01:59:01.512Z,79.93
2019-03-21T02:01:32.857Z,79.86
2019-03-21T02:04:04.259Z,79.76
2019-03-21T02:06:35.614Z,80.02
2019-03-21T02:09:08.473Z,80.26
2019-03-21T02:11:39.847Z,81.01
2019-03-21T02:14:11.194Z,81.83
2019-03-21T02:16:42.552Z,81.25
2019-03-21T02:19:13.828Z,81.04
2019-03-21T02:21:45.134Z,81.19
2019-03-21T02:24:16.554Z,81.58
2019-03-21T02:26:47.863Z,81.87
2019-03-21T02:29:19.283Z,81.12
2019-03-21T02:31:50.794Z,81.96
2019-03-21T02:34:22.331Z,81.47
2019-03-21T02:36:53.648Z,82.49
2019-03-21T02:39:24.954Z,82.92
2019-03-21T02:41:56.379Z,83.51
2019-03-21T02:44:27.733Z,82.13
2019-03-21T02:46:59.097Z,82.26
2019-03-21T02:49:30.365Z,83.76
2019-03-21T02:52:01.761Z,84.32
2019-03-21T02:54:33.008Z,83.63
2019-03-21T02:57:04.381Z,83.30
2019-03-21T02:59:36.696Z,82.49
2019-03-21T03:02:08.031Z,82.88
2019-03-21T03:04:39.351Z,82.69
2019-03-21T03:07:10.685Z,82.92
2019-03-21T03:09:42.052Z,82.88
2019-03-21T03:12:13.385Z,82.28
2019-03-21T03:14:44.646Z,81.62
2019-03-21T03:17:16.041Z,81.14
2019-03-21T03:19:47.433Z,81.32
2019-03-21T03:22:18.757Z,81.25
2019-03-21T03:24:50.094Z,81.45
2019-03-21T03:27:21.430Z,80.74
2019-03-21T03:29:52.822Z,81.09
2019-03-21T03:32:24.081Z,81.35
2019-03-21T03:34:55.469Z,81.12
2019-03-21T03:37:26.775Z,81.08
2019-03-21T03:39:58.004Z,79.98
2019-03-21T03:42:29.371Z,80.02
2019-03-21T03:45:00.628Z,79.84
2019-03-21T03:47:31.934Z,79.42
2019-03-21T03:50:03.348Z,79.77
2019-03-21T03:52:34.735Z,78.55
2019-03-21T03:55:09.106Z,79.03
2019-03-21T03:57:40.524Z,78.71
2019-03-21T04:00:17.744Z,78.55
2019-03-21T04:02:52.806Z,78.58
2019-03-21T04:05:24.223Z,78.23
2019-03-21T04:07:55.572Z,77.40
2019-03-21T04:10:30.041Z,77.66
2019-03-21T04:13:01.367Z,77.44
2019-03-21T04:15:33.748Z,77.42
2019-03-21T04:18:05.188Z,77.90
2019-03-21T04:20:48.339Z,78.04
2019-03-21T04:23:22.322Z,77.63
2019-03-21T04:25:56.918Z,77.98
2019-03-21T04:28:28.322Z,77.58
2019-03-21T04:30:59.728Z,76.72
2019-03-21T04:33:32.272Z,76.50
2019-03-21T04:36:03.546Z,76.50
2019-03-21T04:38:35.039Z,76.38
2019-03-21T04:41:06.401Z,76.05
2019-03-21T04:43:37.710Z,75.84
2019-03-21T04:46:09.104Z,75.39
2019-03-21T04:48:40.500Z,74.15
2019-03-21T04:51:11.859Z,74.09
2019-03-21T04:53:43.198Z,73.77
2019-03-21T04:56:14.640Z,73.01
2019-03-21T04:58:46.035Z,73.80
2019-03-21T05:01:17.374Z,71.92
2019-03-21T05:03:48.835Z,71.73
2019-03-21T05:06:20.247Z,71.27
2019-03-21T05:08:51.575Z,71.50
2019-03-21T05:11:22.944Z,70.50
2019-03-21T05:13:54.453Z,70.27
2019-03-21T05:16:25.915Z,69.10
2019-03-21T05:18:59.729Z,69.34
2019-03-21T05:21:31.141Z,68.46
2019-03-21T05:24:02.427Z,67.95
2019-03-21T05:26:36.024Z,67.65
2019-03-21T05:29:07.364Z,66.53
2019-03-21T05:31:38.718Z,65.86
2019-03-21T05:34:10.111Z,64.77
2019-03-21T05:36:41.397Z,65.48
2019-03-21T05:39:12.749Z,65.79
2019-03-21T05:41:44.109Z,64.24
2019-03-21T05:44:33.534Z,64.17
2019-03-21T05:47:04.884Z,63.16
2019-03-21T05:49:36.288Z,62.20
2019-03-21T05:52:07.754Z,63.49
2019-03-21T05:54:39.216Z,63.16
2019-03-21T05:57:10.585Z,61.35
2019-03-21T05:59:42.178Z,61.83
2019-03-21T06:02:13.466Z,60.51
2019-03-21T06:04:57.227Z,60.05
2019-03-21T06:07:37.605Z,60.04
2019-03-21T06:10:18.137Z,55.98
2019-03-21T06:16:09.077Z,55.49
2019-03-21T06:18:49.850Z,55.40
2019-03-21T06:21:30.164Z,54.73
2019-03-21T06:24:19.693Z,53.87
2019-03-21T06:26:55.131Z,51.91
2019-03-21T06:29:29.419Z,51.70
2019-03-21T06:32:00.756Z,49.15
2019-03-21T06:34:32.166Z,50.58
2019-03-21T06:37:03.533Z,50.21
2019-03-21T06:39:35.011Z,49.96
2019-03-21T06:42:08.211Z,49.29
2019-03-21T06:44:39.592Z,47.42
2019-03-21T06:47:11.138Z,47.74
2019-03-21T06:49:42.698Z,46.77
2019-03-21T06:52:14.039Z,45.15
2019-03-21T06:54:45.309Z,44.00
2019-03-21T06:57:16.652Z,45.01
2019-03-21T06:59:48.067Z,45.03
2019-03-21T07:02:19.490Z,44.89
2019-03-21T07:04:50.903Z,45.16
2019-03-21T07:07:22.342Z,43.23
2019-03-21T07:09:53.877Z,43.70
2019-03-21T07:12:28.400Z,43.66
2019-03-21T07:14:59.727Z,43.41
2019-03-21T07:17:31.685Z,42.47
2019-03-21T07:20:03.455Z,42.77
2019-03-21T07:22:34.765Z,41.46
2019-03-21T07:25:07.915Z,41.56
2019-03-21T07:27:39.305Z,39.25
2019-03-21T07:30:15.063Z,40.01
2019-03-21T07:32:46.424Z,37.33
2019-03-21T07:35:17.794Z,38.54
2019-03-21T07:37:49.176Z,38.70
2019-03-21T07:40:20.537Z,39.23
2019-03-21T07:42:52.053Z,37.14
2019-03-21T07:45:23.377Z,38.16
2019-03-21T07:47:54.791Z,36.40
2019-03-21T07:50:26.980Z,37.80
2019-03-21T07:52:58.370Z,37.12
2019-03-21T07:55:29.835Z,36.95
2019-03-21T07:58:01.095Z,37.29
2019-03-21T08:00:32.424Z,38.87
2019-03-21T08:03:03.774Z,38.87
2019-03-21T08:05:40.193Z,36.81
2019-03-21T08:08:08.169Z,37.36
2019-03-21T08:10:39.459Z,37.51
2019-03-21T08:13:10.811Z,37.69
2019-03-21T08:15:42.105Z,38.14
2019-03-21T08:18:13.562Z,37.74
2019-03-21T08:20:55.575Z,37.34
2019-03-21T08:23:17.879Z,37.89
2019-03-21T08:25:49.346Z,37.42
2019-03-21T08:28:20.793Z,35.98
2019-03-21T08:31:06.944Z,34.87
2019-03-21T08:33:38.296Z,35.06
2019-03-21T08:36:09.696Z,34.17
2019-03-21T08:38:41.079Z,34.68
2019-03-21T08:41:12.449Z,34.80
2019-03-21T08:43:43.895Z,34.36
2019-03-21T08:46:15.207Z,34.23
2019-03-21T08:48:46.638Z,34.32
2019-03-21T08:51:17.926Z,33.68
2019-03-21T08:53:49.308Z,34.24
2019-03-21T08:56:20.726Z,33.75
2019-03-21T08:58:52.076Z,34.05
2019-03-21T09:01:23.347Z,34.06
2019-03-21T09:03:54.616Z,34.40
2019-03-21T09:06:26.020Z,34.38
2019-03-21T09:08:57.456Z,32.89
2019-03-21T09:11:28.831Z,32.58
2019-03-21T09:14:00.193Z,32.01
2019-03-21T09:16:31.546Z,32.09
2019-03-21T09:19:02.879Z,30.99
2019-03-21T09:21:35.836Z,30.48
2019-03-21T09:24:07.183Z,30.13
2019-03-21T09:26:38.508Z,31.07
2019-03-21T09:29:09.915Z,31.26
2019-03-21T09:31:41.232Z,31.01
2019-03-21T09:34:12.663Z,31.11
2019-03-21T09:36:44.069Z,31.41
2019-03-21T09:39:15.246Z,31.62
2019-03-21T09:41:46.597Z,31.01
2019-03-21T09:44:28.530Z,30.36
2019-03-21T09:46:59.774Z,31.67
2019-03-21T09:49:31.148Z,31.68
2019-03-21T09:52:03.581Z,31.72
2019-03-21T09:54:36.069Z,31.53
2019-03-21T09:57:07.491Z,31.00
2019-03-21T09:59:38.836Z,31.35
2019-03-21T10:02:10.193Z,30.87
2019-03-21T10:04:41.505Z,31.90
2019-03-21T10:07:14.268Z,30.76
2019-03-21T10:09:45.621Z,30.19
2019-03-21T10:12:16.972Z,29.51
2019-03-21T10:14:48.387Z,30.31
2019-03-21T10:17:19.812Z,28.98
2019-03-21T10:19:51.073Z,28.98
2019-03-21T10:22:22.311Z,29.35
2019-03-21T10:24:54.248Z,29.94
2019-03-21T10:27:27.111Z,28.89
2019-03-21T10:29:58.561Z,28.35
2019-03-21T10:32:29.995Z,29.08
2019-03-21T10:35:01.256Z,29.64
2019-03-21T10:37:32.644Z,28.88
2019-03-21T10:40:04.590Z,29.20
2019-03-21T10:42:35.341Z,29.47
2019-03-21T10:45:07.607Z,30.07
2019-03-21T10:47:38.852Z,29.92
2019-03-21T10:50:11.886Z,30.46
2019-03-21T10:52:43.223Z,30.27
2019-03-21T10:55:14.559Z,31.02
2019-03-21T10:57:45.892Z,30.95
2019-03-21T11:00:17.217Z,31.85
2019-03-21T11:02:48.548Z,31.57
2019-03-21T11:05:19.991Z,30.71
2019-03-21T11:07:52.914Z,30.50
2019-03-21T11:10:25.739Z,32.11
2019-03-21T11:12:58.048Z,31.41
2019-03-21T11:15:29.453Z,31.31
2019-03-21T11:18:00.808Z,32.09
2019-03-21T11:20:37.124Z,32.71
2019-03-21T11:23:08.596Z,33.46
2019-03-21T11:25:39.948Z,34.18
2019-03-21T11:28:11.335Z,34.28
2019-03-21T11:30:43.409Z,33.79
2019-03-21T11:33:16.105Z,33.97
2019-03-21T11:35:47.538Z,33.94
2019-03-21T11:38:19.103Z,33.95
2019-03-21T11:40:50.368Z,35.03
2019-03-21T11:43:21.751Z,34.71
2019-03-21T11:45:55.199Z,34.42
2019-03-21T11:48:26.382Z,34.89
2019-03-21T11:50:57.703Z,34.30
2019-03-21T11:53:29.014Z,33.70
2019-03-21T11:56:00.281Z,31.69
2019-03-21T11:58:31.798Z,32.33
2019-03-21T12:01:03.026Z,32.59
2019-03-21T12:03:34.391Z,33.32
2019-03-21T12:06:05.711Z,34.26
2019-03-21T12:08:37.122Z,34.26
2019-03-21T12:11:08.291Z,33.31
2019-03-21T12:13:39.694Z,33.36
2019-03-21T12:16:11.130Z,33.35
2019-03-21T12:18:42.540Z,32.96
2019-03-21T12:21:13.930Z,33.63
2019-03-21T12:23:45.452Z,33.46
2019-03-21T12:26:16.861Z,34.11
2019-03-21T12:28:48.194Z,34.71
2019-03-21T12:31:19.650Z,34.13
2019-03-21T12:33:51.177Z,34.68
2019-03-21T12:36:22.596Z,33.87
2019-03-21T12:38:53.989Z,33.80
2019-03-21T12:41:25.330Z,33.47
2019-03-21T12:43:56.544Z,33.77
2019-03-21T12:46:27.855Z,33.14
2019-03-21T12:48:59.238Z,33.48
2019-03-21T12:51:30.579Z,34.07
2019-03-21T12:54:02.389Z,32.87
2019-03-21T12:56:33.634Z,32.92
2019-03-21T12:59:05.023Z,32.99
2019-03-21T13:01:36.305Z,33.03
2019-03-21T13:04:07.741Z,32.99
2019-03-21T13:06:38.945Z,32.99
2019-03-21T13:09:10.265Z,33.51
2019-03-21T13:11:41.667Z,33.54
2019-03-21T13:14:13.108Z,34.17
2019-03-21T13:16:44.523Z,34.17
2019-03-21T13:19:15.945Z,34.61
2019-03-21T13:21:47.379Z,34.52
2019-03-21T13:24:19.679Z,34.72
2019-03-21T13:26:51.073Z,35.10
2019-03-21T13:29:25.001Z,34.79
2019-03-21T13:31:55.495Z,35.02
2019-03-21T13:34:26.900Z,35.46
2019-03-21T13:36:58.281Z,35.38
2019-03-21T13:39:29.567Z,35.67
2019-03-21T13:42:01.097Z,35.36
2019-03-21T13:44:32.424Z,35.61
2019-03-21T13:47:03.718Z,35.77
2019-03-21T13:49:35.053Z,34.95
2019-03-21T13:52:07.658Z,34.49
2019-03-21T13:54:39.040Z,34.41
2019-03-21T13:57:10.416Z,34.11
2019-03-21T13:59:41.733Z,34.79
2019-03-21T14:02:13.148Z,35.24
2019-03-21T14:04:44.544Z,35.12
2019-03-21T14:07:15.993Z,35.26
2019-03-21T14:09:47.328Z,35.28
2019-03-21T14:12:18.837Z,36.13
2019-03-21T14:14:50.029Z,36.74
2019-03-21T14:17:22.405Z,36.82
2019-03-21T14:19:53.865Z,36.51
2019-03-21T14:22:25.267Z,36.88
2019-03-21T14:24:56.608Z,37.03
2019-03-21T14:27:28.019Z,36.73
2019-03-21T14:30:01.530Z,36.68
2019-03-21T14:32:33.744Z,37.39
2019-03-21T14:35:07.264Z,37.67
2019-03-21T14:37:38.560Z,37.67
2019-03-21T14:40:16.488Z,38.62
2019-03-21T14:42:47.912Z,38.82
2019-03-21T14:45:19.211Z,39.05
2019-03-21T14:47:50.569Z,38.88
2019-03-21T14:50:22.459Z,39.86
2019-03-21T14:52:53.679Z,40.18
2019-03-21T14:55:25.083Z,40.21
2019-03-21T14:57:56.737Z,40.75
2019-03-21T15:00:28.134Z,41.91
2019-03-21T15:02:59.427Z,42.05
2019-03-21T15:05:30.670Z,41.97
2019-03-21T15:08:02.135Z,42.24
2019-03-21T15:10:33.651Z,42.25
2019-03-21T15:13:05.100Z,42.12
2019-03-21T15:15:36.370Z,41.79
2019-03-21T15:18:07.737Z,41.78
2019-03-21T15:20:39.061Z,41.71
2019-03-21T15:23:11.491Z,41.44
2019-03-21T15:25:42.911Z,40.80
2019-03-21T15:28:14.315Z,41.06
2019-03-21T15:30:45.754Z,40.59
2019-03-21T15:33:18.029Z,40.56
2019-03-21T15:35:49.498Z,40.63
2019-03-21T15:38:20.945Z,40.41
2019-03-21T15:40:52.400Z,40.08
2019-03-21T15:43:23.646Z,40.32
2019-03-21T15:45:55.111Z,40.01
2019-03-21T15:48:26.363Z,40.53
2019-03-21T15:51:04.226Z,41.15
2019-03-21T15:53:30.506Z,41.08
2019-03-21T15:56:01.882Z,41.77
2019-03-21T15:58:33.256Z,41.68
2019-03-21T16:01:04.635Z,42.28
2019-03-21T16:03:36.024Z,42.81
2019-03-21T16:06:07.398Z,42.87
2019-03-21T16:08:38.659Z,43.11
2019-03-21T16:11:09.967Z,43.41
2019-03-21T16:13:41.279Z,42.94
2019-03-21T16:16:12.559Z,43.77
2019-03-21T16:18:43.916Z,44.36
2019-03-21T16:21:15.310Z,44.38
2019-03-21T16:23:46.660Z,44.36
2019-03-21T16:26:17.872Z,44.17
2019-03-21T16:28:49.211Z,44.86
2019-03-21T16:31:20.510Z,45.03
2019-03-21T16:33:51.859Z,45.28
2019-03-21T16:36:23.357Z,45.60
2019-03-21T16:38:54.807Z,45.80
2019-03-21T16:41:26.138Z,46.58
2019-03-21T16:43:57.543Z,46.88
2019-03-21T16:46:28.835Z,47.44
2019-03-21T16:49:00.285Z,47.38
2019-03-21T16:51:32.701Z,47.92
2019-03-21T16:54:16.221Z,48.19
2019-03-21T16:56:37.109Z,47.91
2019-03-21T16:59:08.467Z,48.50
2019-03-21T17:01:39.873Z,48.14
2019-03-21T17:04:11.136Z,49.36
2019-03-21T17:06:42.519Z,50.10
2019-03-21T17:09:13.801Z,50.50
2019-03-21T17:11:45.102Z,51.13
2019-03-21T17:14:16.667Z,51.69
2019-03-21T17:16:47.925Z,53.51
2019-03-21T17:19:19.248Z,53.01
2019-03-21T17:21:50.710Z,54.18
2019-03-21T17:24:29.178Z,53.63
2019-03-21T17:26:54.966Z,54.63
2019-03-21T17:29:26.313Z,54.81
2019-03-21T17:31:57.755Z,55.80
2019-03-21T17:34:29.123Z,56.19
2019-03-21T17:37:00.504Z,56.60
2019-03-21T17:39:31.884Z,56.99
2019-03-21T17:42:03.627Z,58.11
2019-03-21T17:44:35.117Z,57.56
2019-03-21T17:47:06.544Z,58.89
2019-03-21T17:49:38.673Z,58.59
2019-03-21T17:52:10.031Z,58.71
2019-03-21T17:54:42.838Z,58.17
2019-03-21T17:57:14.216Z,57.23
2019-03-21T17:59:45.600Z,56.76
2019-03-21T18:02:16.950Z,56.15
2019-03-21T18:04:48.385Z,56.21
2019-03-21T18:07:19.763Z,56.39
2019-03-21T18:09:51.080Z,56.25
2019-03-21T18:12:23.641Z,56.27
2019-03-21T18:14:54.911Z,55.89
2019-03-21T18:17:26.328Z,56.76
2019-03-21T18:19:57.720Z,56.69
2019-03-21T18:22:29.057Z,56.64
2019-03-21T18:25:00.564Z,57.75
2019-03-21T18:27:31.921Z,57.52
2019-03-21T18:30:03.492Z,58.37
2019-03-21T18:32:35.876Z,58.58
2019-03-21T18:35:07.142Z,57.78
2019-03-21T18:37:38.477Z,58.12
2019-03-21T18:40:10.944Z,58.08
2019-03-21T18:42:42.330Z,59.34
2019-03-21T18:45:14.763Z,59.54
2019-03-21T18:47:46.102Z,59.56
2019-03-21T18:50:17.600Z,60.19
2019-03-21T18:52:48.927Z,60.59
2019-03-21T18:55:20.264Z,60.45
2019-03-21T18:57:53.968Z,60.82
2019-03-21T19:00:25.417Z,60.77
2019-03-21T19:02:56.731Z,60.20
2019-03-21T19:05:28.078Z,60.95
2019-03-21T19:07:59.486Z,60.54
2019-03-21T19:10:30.871Z,60.65
2019-03-21T19:13:02.322Z,61.58
2019-03-21T19:15:33.626Z,61.10
2019-03-21T19:18:04.936Z,61.29
2019-03-21T19:20:36.321Z,61.42
2019-03-21T19:23:07.648Z,61.22
2019-03-21T19:25:39.085Z,60.94
2019-03-21T19:28:10.454Z,60.73
2019-03-21T19:30:41.854Z,59.84
2019-03-21T19:33:13.114Z,57.75
2019-03-21T19:35:46.862Z,57.55
2019-03-21T19:38:17.861Z,56.55
2019-03-21T19:40:49.255Z,56.13
2019-03-21T19:43:20.802Z,56.56
2019-03-21T19:45:52.195Z,56.65
2019-03-21T19:48:24.579Z,56.07
2019-03-21T19:50:55.949Z,56.08
2019-03-21T19:53:28.983Z,56.23
2019-03-21T19:56:08.564Z,56.70
2019-03-21T19:58:33.475Z,56.61
2019-03-21T20:01:04.869Z,56.54
2019-03-21T20:03:37.473Z,56.32
2019-03-21T20:06:08.904Z,56.68
2019-03-21T20:08:40.327Z,56.09
2019-03-21T20:11:11.747Z,56.58
2019-03-21T20:13:43.066Z,56.61
2019-03-21T20:16:15.035Z,57.21
2019-03-21T20:18:46.428Z,57.30
2019-03-21T20:21:17.825Z,57.41
2019-03-21T20:23:49.266Z,57.53
2019-03-21T20:26:20.537Z,57.58
2019-03-21T20:28:52.017Z,57.81
2019-03-21T20:31:23.391Z,57.27
2019-03-21T20:33:54.684Z,57.49
2019-03-21T20:36:26.108Z,57.10
2019-03-21T20:38:57.447Z,56.97
2019-03-21T20:41:28.786Z,57.65
2019-03-21T20:44:00.115Z,56.56
2019-03-21T20:46:31.458Z,55.70
2019-03-21T20:49:02.839Z,56.28
2019-03-21T20:51:34.189Z,55.44
2019-03-21T20:54:05.461Z,56.12
2019-03-21T20:56:36.890Z,57.19
2019-03-21T20:59:08.351Z,57.19
2019-03-21T21:01:39.716Z,57.48
2019-03-21T21:04:11.542Z,57.59
2019-03-21T21:06:42.957Z,57.59
2019-03-21T21:09:14.354Z,58.12
2019-03-21T21:11:45.670Z,58.54
2019-03-21T21:14:17.009Z,58.93
2019-03-21T21:16:48.265Z,59.36
2019-03-21T21:19:19.624Z,59.17
2019-03-21T21:21:50.931Z,59.48
2019-03-21T21:24:23.473Z,59.51
2019-03-21T21:26:54.750Z,59.42
2019-03-21T21:29:26.151Z,59.46
2019-03-21T21:31:57.583Z,59.72
2019-03-21T21:34:28.976Z,59.48
2019-03-21T21:37:01.267Z,59.78
2019-03-21T21:39:32.625Z,60.12
2019-03-21T21:42:04.017Z,59.93
2019-03-21T21:44:35.334Z,60.40
2019-03-21T21:47:06.612Z,61.16
2019-03-21T21:49:37.995Z,60.87
2019-03-21T21:52:09.334Z,61.28
2019-03-21T21:54:40.655Z,60.84
2019-03-21T21:57:12.074Z,59.84
2019-03-21T21:59:43.404Z,59.50
2019-03-21T22:02:14.723Z,59.78
2019-03-21T22:04:46.020Z,59.01
2019-03-21T22:07:17.296Z,58.10
2019-03-21T22:09:48.708Z,57.79
2019-03-21T22:12:20.038Z,56.50
2019-03-21T22:14:53.480Z,57.38
2019-03-21T22:17:24.909Z,56.54
2019-03-21T22:19:56.278Z,57.76
2019-03-21T22:22:27.662Z,58.13
2019-03-21T22:24:59.176Z,59.04
2019-03-21T22:27:30.562Z,59.69
2019-03-21T22:30:04.235Z,60.29
2019-03-21T22:32:34.985Z,60.91
2019-03-21T22:35:07.394Z,61.03
2019-03-21T22:37:38.716Z,61.53
2019-03-21T22:40:14.591Z,62.27
2019-03-21T22:42:46.007Z,62.48
2019-03-21T22:45:17.633Z,63.59
2019-03-21T22:47:50.525Z,63.08
2019-03-21T22:50:21.989Z,64.04
2019-03-21T22:52:53.293Z,64.29
2019-03-21T22:55:24.698Z,64.05
2019-03-21T22:57:56.073Z,64.60
2019-03-21T23:00:35.072Z,65.10
2019-03-21T23:03:06.444Z,64.98
2019-03-21T23:05:37.793Z,65.14
2019-03-21T23:08:09.089Z,65.57
2019-03-21T23:10:40.331Z,65.93
2019-03-21T23:13:11.772Z,65.80
2019-03-21T23:15:43.043Z,65.38
2019-03-21T23:18:14.449Z,65.76
2019-03-21T23:20:45.679Z,66.57
2019-03-21T23:23:18.019Z,66.64
2019-03-21T23:25:49.350Z,66.89
2019-03-21T23:28:20.687Z,66.18
2019-03-21T23:30:52.035Z,66.70
2019-03-21T23:33:23.573Z,66.45
2019-03-21T23:35:54.998Z,66.73
2019-03-21T23:38:26.326Z,66.03
2019-03-21T23:40:58.640Z,66.17
2019-03-21T23:43:30.007Z,66.27
2019-03-21T23:46:01.379Z,66.36
2019-03-21T23:48:32.838Z,67.04
2019-03-21T23:51:04.164Z,66.77
2019-03-21T23:53:35.682Z,65.96
2019-03-21T23:56:07.039Z,67.44
2019-03-21T23:58:38.316Z,66.95
